Time;durP1;ratioP1;P1;durP2;ratioP2;P2;SDS_P1;SDS_P2;PMS_P1;PMS_P2;Temp;Humidity;BMP_temperature;BMP_pressure;BME280_temperature;BME280_humidity;BME280_pressure;Samples;Min_cycle;Max_cycle;Signal;HPM_P1;HPM_P2
2022/01/29 00:01:34;;;;;;;70.60;39.75;;;6.90;99.90;;;;;;4841908;29;20030;-82
2022/01/29 00:04:00;;;;;;;64.82;40.78;;;6.90;99.90;;;;;;4830043;29;20022;-81
2022/01/29 00:06:27;;;;;;;67.55;39.30;;;6.90;99.90;;;;;;4840152;29;20038;-80
2022/01/29 00:08:55;;;;;;;65.53;40.35;;;6.90;99.90;;;;;;4809703;29;20033;-82
2022/01/29 00:11:27;;;;;;;70.32;42.88;;;6.80;99.90;;;;;;4826103;29;20030;-81
2022/01/29 00:13:54;;;;;;;74.43;41.80;;;6.80;99.90;;;;;;4828581;29;20045;-81
2022/01/29 00:16:20;;;;;;;73.82;42.50;;;6.80;99.90;;;;;;4808973;29;20132;-81
2022/01/29 00:18:46;;;;;;;61.92;37.55;;;6.80;99.90;;;;;;4825823;29;20037;-82
2022/01/29 00:21:13;;;;;;;59.35;35.20;;;6.80;99.90;;;;;;4839285;29;20030;-81
2022/01/29 00:23:39;;;;;;;75.90;41.00;;;6.80;99.90;;;;;;4840581;29;20033;-84
2022/01/29 00:26:06;;;;;;;71.93;39.72;;;6.80;99.90;;;;;;4825701;29;20052;-81
2022/01/29 00:28:34;;;;;;;59.28;36.08;;;6.80;99.90;;;;;;4842159;29;20029;-81
2022/01/29 00:31:03;;;;;;;65.90;39.05;;;6.70;99.90;;;;;;4812821;29;20042;-80
2022/01/29 00:33:32;;;;;;;77.53;41.50;;;6.70;99.90;;;;;;4823391;29;20482;-82
2022/01/29 00:35:58;;;;;;;68.05;39.40;;;6.70;99.90;;;;;;4828872;29;20042;-82
2022/01/29 00:38:24;;;;;;;66.35;38.08;;;6.70;99.90;;;;;;4844123;29;20053;-81
2022/01/29 00:40:50;;;;;;;77.63;43.65;;;6.70;99.90;;;;;;4824522;29;20034;-81
2022/01/29 00:43:17;;;;;;;81.55;43.17;;;6.70;99.90;;;;;;4830032;29;20030;-82
2022/01/29 00:45:43;;;;;;;96.32;48.92;;;6.70;99.90;;;;;;4810232;29;20040;-81
2022/01/29 00:48:10;;;;;;;81.13;43.28;;;6.60;99.90;;;;;;4827984;29;20042;-80
2022/01/29 00:50:36;;;;;;;74.60;41.15;;;6.60;99.90;;;;;;4826062;29;20044;-79
2022/01/29 00:53:03;;;;;;;70.43;39.70;;;6.60;99.90;;;;;;4855931;29;20025;-80
2022/01/29 00:55:29;;;;;;;71.38;41.90;;;6.60;99.90;;;;;;4845102;29;20033;-79
2022/01/29 00:57:55;;;;;;;68.90;40.25;;;6.60;99.90;;;;;;4838057;29;20037;-78
2022/01/29 01:00:21;;;;;;;75.82;41.17;;;6.60;99.90;;;;;;4826683;29;20355;-79
2022/01/29 01:02:48;;;;;;;75.80;41.40;;;6.60;99.90;;;;;;4814761;29;20037;-80
2022/01/29 01:05:14;;;;;;;90.28;47.08;;;6.60;99.90;;;;;;4846871;29;20026;-80
2022/01/29 01:07:41;;;;;;;92.70;48.13;;;6.60;99.90;;;;;;4838901;29;20393;-80
2022/01/29 01:10:09;;;;;;;72.10;40.17;;;6.60;99.90;;;;;;4824404;29;20057;-81
2022/01/29 01:12:35;;;;;;;69.25;39.72;;;6.60;99.90;;;;;;4829671;29;20474;-82
2022/01/29 01:15:02;;;;;;;73.93;40.53;;;6.60;99.90;;;;;;4841037;29;20040;-80
2022/01/29 01:17:29;;;;;;;77.55;44.22;;;6.70;99.90;;;;;;4840680;29;20548;-81
2022/01/29 01:19:56;;;;;;;73.53;39.72;;;6.70;99.90;;;;;;4842696;29;20046;-81
2022/01/29 01:22:22;;;;;;;85.60;45.47;;;6.70;99.90;;;;;;4826254;29;20029;-81
2022/01/29 01:24:48;;;;;;;72.90;42.03;;;6.70;99.90;;;;;;4810689;29;20057;-81
2022/01/29 01:27:16;;;;;;;74.20;40.28;;;6.70;99.90;;;;;;4840190;29;20042;-82
2022/01/29 01:29:43;;;;;;;68.82;40.90;;;6.70;99.90;;;;;;4824908;29;21450;-81
2022/01/29 01:32:12;;;;;;;89.88;48.30;;;6.70;99.90;;;;;;4839365;29;20030;-81
2022/01/29 01:34:45;;;;;;;85.57;47.03;;;6.70;99.90;;;;;;4827685;29;20030;-80
2022/01/29 01:37:18;;;;;;;78.45;42.50;;;6.70;99.90;;;;;;4840433;29;20403;-81
2022/01/29 01:39:45;;;;;;;77.82;43.03;;;6.70;99.90;;;;;;4825476;29;20026;-81
2022/01/29 01:42:11;;;;;;;73.22;41.53;;;6.70;99.90;;;;;;4813496;29;20041;-80
2022/01/29 01:44:43;;;;;;;72.70;40.20;;;6.80;99.90;;;;;;4824559;29;20017;-80
2022/01/29 01:47:09;;;;;;;67.25;38.22;;;6.80;99.90;;;;;;4826270;29;20044;-80
2022/01/29 01:49:36;;;;;;;64.78;36.10;;;6.70;99.90;;;;;;4812490;29;20041;-80
2022/01/29 01:52:06;;;;;;;66.40;38.50;;;6.80;99.90;;;;;;4825391;29;20045;-80
2022/01/29 01:54:33;;;;;;;75.60;42.33;;;6.80;99.90;;;;;;4841132;29;20045;-80
2022/01/29 01:57:00;;;;;;;83.32;45.95;;;6.80;99.90;;;;;;4842596;29;20533;-80
2022/01/29 01:59:28;;;;;;;71.72;39.75;;;6.80;99.90;;;;;;4823220;29;20026;-80
2022/01/29 02:01:54;;;;;;;69.18;38.53;;;6.80;99.90;;;;;;4839334;29;20038;-80
2022/01/29 02:04:20;;;;;;;71.15;39.38;;;6.80;99.90;;;;;;4842230;29;20028;-80
2022/01/29 02:06:50;;;;;;;71.30;39.53;;;6.80;99.90;;;;;;4841226;29;20033;-80
2022/01/29 02:09:17;;;;;;;63.00;37.53;;;6.80;99.90;;;;;;4823807;29;20044;-81
2022/01/29 02:11:56;;;;;;;68.47;39.53;;;6.80;99.90;;;;;;4840025;29;20037;-81
2022/01/29 02:14:28;;;;;;;65.35;38.88;;;6.80;99.90;;;;;;4829176;29;20478;-80
2022/01/29 02:16:55;;;;;;;65.45;36.67;;;6.80;99.90;;;;;;4838840;29;20030;-80
2022/01/29 02:19:21;;;;;;;68.97;40.20;;;6.80;99.90;;;;;;4839099;29;20661;-80
2022/01/29 02:21:47;;;;;;;62.83;37.33;;;6.90;99.90;;;;;;4821027;29;20049;-80
2022/01/29 02:24:14;;;;;;;79.63;42.53;;;6.80;99.90;;;;;;4841840;29;20398;-79
2022/01/29 02:26:41;;;;;;;81.25;44.88;;;6.80;99.90;;;;;;4837346;29;20054;-80
2022/01/29 02:29:08;;;;;;;67.95;39.55;;;6.80;99.90;;;;;;4809376;29;20037;-80
2022/01/29 02:31:34;;;;;;;70.00;39.78;;;6.80;99.90;;;;;;4840098;29;20030;-81
2022/01/29 02:34:00;;;;;;;67.13;38.88;;;6.80;99.90;;;;;;4827553;29;20036;-81
2022/01/29 02:36:27;;;;;;;69.20;41.05;;;6.80;99.90;;;;;;4842757;29;20378;-80
2022/01/29 02:38:53;;;;;;;67.70;39.28;;;6.80;99.90;;;;;;4824372;29;20045;-81
2022/01/29 02:41:22;;;;;;;80.05;45.03;;;6.80;99.90;;;;;;4840673;29;20390;-80
2022/01/29 02:43:49;;;;;;;69.43;39.42;;;6.80;99.90;;;;;;4826239;29;20044;-80
2022/01/29 02:48:49;;;;;;;53.17;34.15;;;6.80;99.90;;;;;;4837891;29;20037;-80
2022/01/29 02:51:16;;;;;;;64.32;37.92;;;6.80;99.90;;;;;;4851789;29;20054;-81
2022/01/29 02:53:43;;;;;;;52.40;34.95;;;6.80;99.90;;;;;;4837827;29;20039;-80
2022/01/29 02:56:09;;;;;;;50.78;32.70;;;6.80;99.90;;;;;;4854563;29;20045;-80
2022/01/29 02:58:36;;;;;;;51.75;32.63;;;6.80;99.90;;;;;;4810330;29;20042;-79
2022/01/29 03:01:04;;;;;;;52.53;34.03;;;6.80;99.90;;;;;;4824715;29;20033;-80
2022/01/29 03:03:30;;;;;;;53.65;34.55;;;6.80;99.90;;;;;;4824858;29;20022;-80
2022/01/29 03:05:57;;;;;;;57.08;36.25;;;6.80;99.90;;;;;;4822700;29;20038;-80
2022/01/29 03:08:23;;;;;;;64.78;37.58;;;6.80;99.90;;;;;;4827088;29;20056;-79
2022/01/29 03:10:49;;;;;;;50.25;34.03;;;6.80;99.90;;;;;;4826239;29;20038;-77
2022/01/29 03:13:16;;;;;;;53.70;35.67;;;6.80;99.90;;;;;;4835406;29;20280;-79
2022/01/29 03:15:43;;;;;;;53.17;34.95;;;6.80;99.90;;;;;;4810595;29;20032;-80
2022/01/29 03:18:09;;;;;;;56.45;32.03;;;6.80;99.90;;;;;;4822790;29;20421;-80
2022/01/29 03:20:35;;;;;;;56.22;34.10;;;6.90;99.90;;;;;;4826111;29;20037;-80
2022/01/29 03:23:02;;;;;;;45.03;30.65;;;6.90;99.90;;;;;;4821102;29;20037;-80
2022/01/29 03:25:28;;;;;;;55.75;34.28;;;6.90;99.90;;;;;;4823411;29;20050;-81
2022/01/29 03:27:54;;;;;;;44.03;29.55;;;6.90;99.90;;;;;;4820327;29;20069;-80
2022/01/29 03:30:20;;;;;;;54.33;33.13;;;6.90;99.90;;;;;;4824694;29;20044;-80
2022/01/29 03:32:47;;;;;;;46.45;30.35;;;6.90;99.90;;;;;;4808475;29;20037;-80
2022/01/29 03:35:16;;;;;;;48.70;31.83;;;6.90;99.90;;;;;;4827473;29;20066;-80
2022/01/29 03:37:42;;;;;;;46.05;30.95;;;6.90;99.90;;;;;;4825629;29;20030;-80
2022/01/29 03:40:08;;;;;;;50.78;31.48;;;6.90;99.90;;;;;;4825338;29;20449;-80
2022/01/29 03:42:43;;;;;;;60.03;35.35;;;7.00;99.90;;;;;;4838909;29;20041;-80
2022/01/29 03:45:10;;;;;;;63.90;36.53;;;7.00;99.90;;;;;;4840016;29;20025;-80
2022/01/29 03:47:36;;;;;;;64.95;37.88;;;7.00;99.90;;;;;;4823620;29;20034;-80
2022/01/29 03:50:03;;;;;;;67.95;39.28;;;6.90;99.90;;;;;;4842051;29;20049;-80
2022/01/29 03:52:29;;;;;;;60.38;34.55;;;6.90;99.90;;;;;;4837529;29;20038;-80
2022/01/29 03:54:55;;;;;;;45.88;30.20;;;7.00;99.90;;;;;;4822969;29;20044;-78
2022/01/29 03:57:22;;;;;;;50.25;31.48;;;6.90;99.90;;;;;;4840904;29;20049;-80
2022/01/29 03:59:48;;;;;;;55.13;32.38;;;7.00;99.90;;;;;;4808953;29;20076;-80
2022/01/29 04:02:14;;;;;;;50.28;30.77;;;7.00;99.90;;;;;;4836886;29;20034;-80
2022/01/29 04:04:40;;;;;;;70.78;38.05;;;7.00;99.90;;;;;;4822468;29;20044;-80
2022/01/29 04:07:11;;;;;;;48.58;30.10;;;7.00;99.90;;;;;;4832464;29;20138;-80
2022/01/29 04:09:47;;;;;;;46.53;30.27;;;7.00;99.90;;;;;;4822333;29;20041;-81
2022/01/29 04:12:14;;;;;;;53.97;33.35;;;7.00;99.90;;;;;;4838022;29;20045;-81
2022/01/29 04:14:41;;;;;;;48.92;29.25;;;7.00;99.90;;;;;;4811965;29;20375;-81
2022/01/29 04:17:07;;;;;;;54.03;32.55;;;7.00;99.90;;;;;;4823847;29;20065;-80
2022/01/29 04:19:34;;;;;;;67.50;36.55;;;7.10;99.90;;;;;;4836312;29;20025;-80
2022/01/29 04:22:02;;;;;;;54.00;33.22;;;7.00;99.90;;;;;;4812438;29;21309;-79
2022/01/29 04:24:28;;;;;;;51.75;31.63;;;7.00;99.90;;;;;;4809093;29;20054;-80
2022/01/29 04:26:55;;;;;;;55.20;35.33;;;7.10;99.90;;;;;;4824104;29;20049;-80
2022/01/29 04:29:21;;;;;;;70.20;38.25;;;7.10;99.90;;;;;;4827031;29;20028;-79
2022/01/29 04:34:20;;;;;;;60.80;35.67;;;7.10;99.90;;;;;;4824410;29;20029;-80
2022/01/29 04:36:46;;;;;;;66.07;36.22;;;7.10;99.90;;;;;;4840852;29;20127;-80
2022/01/29 04:39:12;;;;;;;72.18;38.30;;;7.10;99.90;;;;;;4824712;29;20030;-79
2022/01/29 04:41:39;;;;;;;67.13;38.10;;;7.10;99.90;;;;;;4810061;29;20041;-79
2022/01/29 04:44:05;;;;;;;60.63;35.53;;;7.20;99.90;;;;;;4806903;29;20039;-80
2022/01/29 04:46:31;;;;;;;84.35;41.85;;;7.20;99.90;;;;;;4839131;29;20025;-79
2022/01/29 04:48:58;;;;;;;71.32;37.70;;;7.20;99.90;;;;;;4825144;29;20069;-79
2022/01/29 04:51:24;;;;;;;80.43;40.15;;;7.20;99.90;;;;;;4837007;29;20064;-80
2022/01/29 04:53:50;;;;;;;68.88;38.78;;;7.20;99.90;;;;;;4823880;29;20069;-79
2022/01/29 04:56:17;;;;;;;70.68;39.78;;;7.30;99.90;;;;;;4836354;29;20042;-79
2022/01/29 04:58:43;;;;;;;78.93;38.47;;;7.30;99.90;;;;;;4839957;29;20041;-79
2022/01/29 05:01:09;;;;;;;74.00;39.83;;;7.30;99.90;;;;;;4836868;29;20052;-78
2022/01/29 05:03:36;;;;;;;94.43;39.88;;;7.30;99.90;;;;;;4825610;29;20042;-80
2022/01/29 05:06:09;;;;;;;71.18;38.63;;;7.40;99.90;;;;;;4822764;29;20042;-79
2022/01/29 05:08:37;;;;;;;64.72;37.65;;;7.40;99.90;;;;;;4839420;29;20034;-79
2022/01/29 05:11:04;;;;;;;82.10;40.83;;;7.40;99.90;;;;;;4806414;29;20597;-79
2022/01/29 05:13:32;;;;;;;64.45;37.53;;;7.40;99.90;;;;;;4828322;29;20066;-79
2022/01/29 05:27:14;;;;;;;81.47;40.60;;;7.50;99.90;;;;;;4822832;29;20473;-79
2022/01/29 05:29:40;;;;;;;71.30;39.55;;;7.60;99.90;;;;;;4820380;29;20022;-79
2022/01/29 05:32:08;;;;;;;70.72;37.15;;;7.50;99.90;;;;;;4839359;29;20045;-79
2022/01/29 05:34:35;;;;;;;71.05;40.08;;;7.60;99.90;;;;;;4825246;29;20037;-79
2022/01/29 05:37:02;;;;;;;72.90;37.30;;;7.60;99.90;;;;;;4809556;29;20026;-79
2022/01/29 05:39:29;;;;;;;107.03;44.60;;;7.60;99.90;;;;;;4809344;29;20037;-79
2022/01/29 05:41:55;;;;;;;125.68;51.42;;;7.60;99.90;;;;;;4823586;29;20034;-79
2022/01/29 05:44:21;;;;;;;81.68;40.40;;;7.70;99.90;;;;;;4838624;29;20731;-79
2022/01/29 05:46:48;;;;;;;86.55;43.58;;;7.70;99.90;;;;;;4820820;29;20041;-79
2022/01/29 05:49:15;;;;;;;89.22;44.05;;;7.60;99.90;;;;;;4826798;29;20033;-79
2022/01/29 05:51:41;;;;;;;90.70;43.90;;;7.70;99.90;;;;;;4809409;29;20398;-79
2022/01/29 05:54:08;;;;;;;87.15;42.53;;;7.70;99.90;;;;;;4843608;29;20032;-79
2022/01/29 05:56:34;;;;;;;80.75;40.25;;;7.70;99.90;;;;;;4839488;29;20026;-79
2022/01/29 05:59:00;;;;;;;77.57;39.72;;;7.70;99.90;;;;;;4840914;29;20052;-79
2022/01/29 06:01:26;;;;;;;91.05;45.08;;;7.70;99.90;;;;;;4822945;29;20048;-79
2022/01/29 06:03:53;;;;;;;64.95;37.97;;;7.70;99.90;;;;;;4840290;29;20726;-79
2022/01/29 06:06:19;;;;;;;72.07;39.80;;;7.70;99.90;;;;;;4808889;29;20037;-79
2022/01/29 06:08:45;;;;;;;71.10;39.70;;;7.70;99.90;;;;;;4824880;29;20052;-79
2022/01/29 06:11:12;;;;;;;82.40;40.20;;;7.70;99.90;;;;;;4808604;29;20056;-79
2022/01/29 06:13:38;;;;;;;88.05;44.50;;;7.80;99.90;;;;;;4823228;29;20034;-79
2022/01/29 06:16:05;;;;;;;82.88;40.58;;;7.80;99.90;;;;;;4836269;29;20030;-79
2022/01/29 06:18:32;;;;;;;78.72;40.85;;;7.80;99.90;;;;;;4823512;29;20037;-79
2022/01/29 06:21:04;;;;;;;93.50;41.50;;;7.80;99.90;;;;;;4805456;29;20030;-79
2022/01/29 06:23:36;;;;;;;74.68;39.28;;;7.80;99.90;;;;;;4841968;29;20044;-79
2022/01/29 06:26:05;;;;;;;82.88;42.05;;;7.80;99.90;;;;;;4818284;29;20049;-79
2022/01/29 06:28:32;;;;;;;77.35;41.10;;;7.80;99.90;;;;;;4837725;29;20042;-79
2022/01/29 06:30:59;;;;;;;77.07;40.58;;;7.90;99.90;;;;;;4807133;29;20523;-79
2022/01/29 06:33:25;;;;;;;68.68;37.50;;;7.90;99.90;;;;;;4808385;29;20049;-79
2022/01/29 06:35:52;;;;;;;80.13;40.95;;;7.90;99.90;;;;;;4833840;29;20033;-79
2022/01/29 06:38:19;;;;;;;88.60;42.00;;;7.90;99.90;;;;;;4804230;29;20147;-79
2022/01/29 06:40:45;;;;;;;73.78;39.45;;;7.90;99.90;;;;;;4834995;29;20037;-79
2022/01/29 06:43:12;;;;;;;65.18;36.25;;;7.90;99.90;;;;;;4817190;29;20042;-79
2022/01/29 06:45:40;;;;;;;66.05;35.63;;;7.90;99.90;;;;;;4807324;29;20041;-80
2022/01/29 06:48:10;;;;;;;86.72;39.67;;;7.90;99.90;;;;;;4819926;29;20378;-79
2022/01/29 06:50:38;;;;;;;64.38;36.08;;;8.00;99.90;;;;;;4818877;29;20049;-80
2022/01/29 06:53:05;;;;;;;69.85;38.88;;;7.90;99.90;;;;;;4831765;29;20037;-79
2022/01/29 06:55:32;;;;;;;65.50;36.88;;;8.00;99.90;;;;;;4813848;29;20042;-78
2022/01/29 06:57:58;;;;;;;74.25;37.40;;;8.00;99.90;;;;;;4817903;29;20049;-81
2022/01/29 07:00:24;;;;;;;59.83;32.15;;;8.00;99.90;;;;;;4835136;29;20021;-78
2022/01/29 07:02:51;;;;;;;63.63;34.35;;;8.00;99.90;;;;;;4832875;29;20124;-80
2022/01/29 07:05:17;;;;;;;58.15;31.70;;;8.10;99.90;;;;;;4832304;29;20037;-80
2022/01/29 07:07:43;;;;;;;57.53;30.92;;;8.00;99.90;;;;;;4833618;29;20030;-79
2022/01/29 07:10:10;;;;;;;52.58;30.70;;;8.10;99.90;;;;;;4804832;29;20148;-80
2022/01/29 07:12:38;;;;;;;54.05;30.67;;;8.10;99.90;;;;;;4816308;29;20044;-79
2022/01/29 07:15:08;;;;;;;56.50;31.10;;;8.10;99.90;;;;;;4819277;29;20057;-79
2022/01/29 07:17:35;;;;;;;62.63;32.58;;;8.10;99.90;;;;;;4814298;29;20038;-80
2022/01/29 07:20:03;;;;;;;53.85;30.73;;;8.10;99.90;;;;;;4834490;29;21142;-80
2022/01/29 07:22:29;;;;;;;55.92;30.67;;;8.20;99.90;;;;;;4817930;29;20037;-79
2022/01/29 07:24:56;;;;;;;69.50;33.40;;;8.20;99.90;;;;;;4805059;29;20053;-80
2022/01/29 07:27:22;;;;;;;60.60;33.03;;;8.20;99.90;;;;;;4802986;29;20048;-79
2022/01/29 07:29:48;;;;;;;54.15;31.77;;;8.20;99.90;;;;;;4831944;29;20046;-80
2022/01/29 07:32:14;;;;;;;47.55;29.13;;;8.20;99.90;;;;;;4848389;29;20684;-79
2022/01/29 07:34:41;;;;;;;49.40;29.85;;;8.20;99.90;;;;;;4801171;29;20053;-79
2022/01/29 07:37:07;;;;;;;43.47;26.33;;;8.20;99.90;;;;;;4816711;29;20038;-80
2022/01/29 07:39:34;;;;;;;53.97;26.63;;;8.20;99.90;;;;;;4831445;29;20041;-79
2022/01/29 07:42:00;;;;;;;42.45;25.88;;;8.30;99.90;;;;;;4832717;29;20683;-79
2022/01/29 07:44:29;;;;;;;43.83;26.85;;;8.30;99.90;;;;;;4833138;29;20033;-79
2022/01/29 07:46:56;;;;;;;52.47;27.55;;;8.30;99.90;;;;;;4799541;29;20038;-79
2022/01/29 07:49:23;;;;;;;48.85;28.65;;;8.30;99.90;;;;;;4827942;29;20594;-80
2022/01/29 07:51:49;;;;;;;50.03;25.13;;;8.30;99.90;;;;;;4821038;29;20272;-79
2022/01/29 07:54:15;;;;;;;40.63;22.75;;;8.30;99.90;;;;;;4849431;29;20037;-80
2022/01/29 07:56:43;;;;;;;56.78;27.00;;;8.40;99.90;;;;;;4822098;29;20466;-80
2022/01/29 07:59:10;;;;;;;45.58;23.90;;;8.40;99.90;;;;;;4822367;29;20046;-79
2022/01/29 08:01:36;;;;;;;41.30;25.20;;;8.40;99.90;;;;;;4820979;29;20033;-80
2022/01/29 08:04:02;;;;;;;39.33;23.17;;;8.40;99.90;;;;;;4823004;29;20026;-79
2022/01/29 08:06:31;;;;;;;38.65;21.75;;;8.50;99.90;;;;;;4819013;29;20426;-79
2022/01/29 08:08:58;;;;;;;42.67;23.70;;;8.50;99.90;;;;;;4822046;29;20049;-79
2022/01/29 08:11:24;;;;;;;36.75;21.23;;;8.50;99.90;;;;;;4821050;29;20030;-80
2022/01/29 08:13:51;;;;;;;42.60;23.20;;;8.50;99.90;;;;;;4837922;29;20036;-80
2022/01/29 08:16:17;;;;;;;38.35;21.63;;;8.50;99.90;;;;;;4840062;29;20029;-80
2022/01/29 08:18:46;;;;;;;31.40;19.20;;;8.60;99.90;;;;;;4822951;29;20044;-80
2022/01/29 08:21:16;;;;;;;34.90;20.33;;;8.60;99.90;;;;;;4807702;29;20030;-79
2022/01/29 08:23:43;;;;;;;31.80;19.50;;;8.60;99.90;;;;;;4823837;29;20025;-80
2022/01/29 08:26:11;;;;;;;33.33;18.70;;;8.70;99.90;;;;;;4841781;29;20042;-80
2022/01/29 08:28:38;;;;;;;36.33;20.25;;;8.70;99.90;;;;;;4827029;29;20037;-80
2022/01/29 08:31:05;;;;;;;50.08;25.10;;;8.70;99.90;;;;;;4809247;29;20029;-80
2022/01/29 08:33:31;;;;;;;33.53;20.20;;;8.70;99.90;;;;;;4811724;29;20033;-79
2022/01/29 08:35:58;;;;;;;33.17;19.88;;;8.70;99.90;;;;;;4839731;29;20119;-77
2022/01/29 08:38:25;;;;;;;36.63;21.08;;;8.80;99.90;;;;;;4822887;29;20501;-77
2022/01/29 08:40:53;;;;;;;31.98;19.95;;;8.80;99.90;;;;;;4826472;29;20037;-78
2022/01/29 08:43:19;;;;;;;36.35;23.00;;;8.80;99.90;;;;;;4839425;29;20033;-79
2022/01/29 08:45:46;;;;;;;45.97;25.48;;;8.80;99.90;;;;;;4835454;29;20038;-79
2022/01/29 08:48:12;;;;;;;44.20;24.55;;;8.80;99.90;;;;;;4825655;29;20044;-78
2022/01/29 08:50:39;;;;;;;32.63;20.48;;;8.80;99.90;;;;;;4807122;29;20036;-78
2022/01/29 08:53:05;;;;;;;46.67;23.95;;;8.80;99.90;;;;;;4838365;29;20048;-78
2022/01/29 08:55:36;;;;;;;40.67;22.83;;;8.90;99.90;;;;;;4825693;29;20038;-77
2022/01/29 08:58:08;;;;;;;33.20;21.10;;;8.90;99.90;;;;;;4836969;29;20568;-78
2022/01/29 09:00:36;;;;;;;34.63;20.37;;;8.90;99.90;;;;;;4839370;29;20030;-78
2022/01/29 09:03:03;;;;;;;40.90;22.33;;;8.90;99.90;;;;;;4836792;29;20019;-78
2022/01/29 09:05:29;;;;;;;29.80;18.30;;;8.90;99.90;;;;;;4839010;29;20021;-78
2022/01/29 09:07:57;;;;;;;40.50;21.77;;;8.90;99.90;;;;;;4820089;29;20033;-78
2022/01/29 09:10:27;;;;;;;34.28;21.25;;;9.00;99.90;;;;;;4820840;29;20041;-79
2022/01/29 09:12:54;;;;;;;29.63;19.85;;;9.00;99.90;;;;;;4838898;29;20038;-78
2022/01/29 09:15:24;;;;;;;36.60;20.75;;;9.00;99.90;;;;;;4839351;29;20048;-77
2022/01/29 09:17:52;;;;;;;36.10;19.88;;;9.00;99.90;;;;;;4833959;29;20029;-80
2022/01/29 09:20:18;;;;;;;35.35;20.50;;;9.00;99.90;;;;;;4823189;29;20038;-78
2022/01/29 09:22:48;;;;;;;41.55;22.60;;;9.00;99.90;;;;;;4835335;29;20045;-78
2022/01/29 09:25:15;;;;;;;30.98;18.33;;;9.10;99.90;;;;;;4836101;29;20042;-78
2022/01/29 09:27:42;;;;;;;44.28;23.75;;;9.10;99.90;;;;;;4807332;29;20117;-78
2022/01/29 09:30:09;;;;;;;43.08;21.30;;;9.10;99.90;;;;;;4821973;29;20030;-78
2022/01/29 09:32:35;;;;;;;31.17;19.15;;;9.10;99.90;;;;;;4820246;29;20026;-78
2022/01/29 09:35:01;;;;;;;30.45;18.23;;;9.10;99.90;;;;;;4822413;29;20034;-76
2022/01/29 09:37:28;;;;;;;42.65;21.60;;;9.20;99.90;;;;;;4831238;29;20057;-78
2022/01/29 09:39:54;;;;;;;36.53;20.52;;;9.20;99.90;;;;;;4836351;29;20061;-78
2022/01/29 09:42:21;;;;;;;24.50;16.60;;;9.20;99.90;;;;;;4836003;29;20480;-78
2022/01/29 09:44:48;;;;;;;37.00;17.88;;;9.20;99.90;;;;;;4823784;29;20036;-78
2022/01/29 09:47:17;;;;;;;28.15;17.05;;;9.30;99.90;;;;;;4822993;29;20026;-77
2022/01/29 09:49:45;;;;;;;28.88;17.17;;;9.30;99.90;;;;;;4819494;29;20025;-78
2022/01/29 09:52:11;;;;;;;26.38;17.50;;;9.30;99.90;;;;;;4818155;29;20366;-77
2022/01/29 09:54:38;;;;;;;22.00;14.90;;;9.30;99.90;;;;;;4835570;29;20046;-78
2022/01/29 09:57:04;;;;;;;28.08;17.25;;;9.40;99.90;;;;;;4835285;29;20030;-78
2022/01/29 09:59:30;;;;;;;20.45;13.52;;;9.40;99.90;;;;;;4820213;29;20029;-78
2022/01/29 10:01:57;;;;;;;22.45;13.88;;;9.40;99.90;;;;;;4806300;29;20060;-77
2022/01/29 10:04:24;;;;;;;24.38;14.18;;;9.40;99.90;;;;;;4835798;29;20060;-77
2022/01/29 10:07:14;;;;;;;24.23;15.90;;;9.40;99.90;;;;;;4808960;29;20128;-77
2022/01/29 10:09:40;;;;;;;20.70;13.52;;;9.50;99.90;;;;;;4852219;29;20038;-78
2022/01/29 10:12:20;;;;;;;20.42;12.93;;;9.50;99.90;;;;;;4820860;29;20041;-78
2022/01/29 10:15:08;;;;;;;26.50;13.98;;;9.50;99.90;;;;;;4822897;29;20041;-77
2022/01/29 10:17:48;;;;;;;21.08;12.40;;;9.60;99.90;;;;;;4793907;29;20042;-78
2022/01/29 10:20:18;;;;;;;18.08;11.43;;;9.60;99.90;;;;;;4820999;29;20035;-76
2022/01/29 10:22:50;;;;;;;16.70;9.88;;;9.60;99.90;;;;;;4822866;29;20034;-79
2022/01/29 10:25:28;;;;;;;18.85;11.55;;;9.60;99.90;;;;;;4836705;29;20042;-76
2022/01/29 10:28:18;;;;;;;18.75;12.35;;;9.60;99.90;;;;;;4821914;29;20026;-78
2022/01/29 10:30:51;;;;;;;20.05;10.85;;;9.60;99.90;;;;;;4822383;29;20030;-78
2022/01/29 10:33:42;;;;;;;16.55;11.02;;;9.60;99.90;;;;;;4823919;29;20060;-78
2022/01/29 10:36:14;;;;;;;20.42;10.13;;;9.70;99.90;;;;;;4807572;29;20041;-77
2022/01/29 10:38:40;;;;;;;20.10;11.67;;;9.70;99.90;;;;;;4823573;29;20048;-78
2022/01/29 10:41:26;;;;;;;14.75;8.77;;;9.70;99.90;;;;;;4837462;29;20025;-79
2022/01/29 10:44:10;;;;;;;22.55;9.25;;;9.80;99.90;;;;;;4837683;29;20029;-77
2022/01/29 10:46:39;;;;;;;14.07;7.72;;;9.80;99.90;;;;;;4837408;29;20045;-77
2022/01/29 10:49:06;;;;;;;13.27;7.93;;;9.90;99.90;;;;;;4818615;29;20030;-77
2022/01/29 10:51:35;;;;;;;15.38;7.95;;;9.90;99.90;;;;;;4833753;29;20030;-77
2022/01/29 10:54:20;;;;;;;10.80;7.72;;;10.00;99.90;;;;;;4823085;29;20052;-77
2022/01/29 10:56:59;;;;;;;11.13;6.38;;;10.00;99.90;;;;;;4838564;29;20041;-77
2022/01/29 10:59:27;;;;;;;15.60;8.02;;;10.00;99.90;;;;;;4836279;29;20390;-77
2022/01/29 11:01:56;;;;;;;12.00;7.18;;;10.10;99.90;;;;;;4820260;29;20398;-77
2022/01/29 11:04:26;;;;;;;10.25;6.28;;;10.10;99.90;;;;;;4806333;29;20026;-78
2022/01/29 11:06:54;;;;;;;13.57;6.47;;;10.10;99.90;;;;;;4836929;29;20042;-77
2022/01/29 11:09:21;;;;;;;9.95;5.43;;;10.10;99.90;;;;;;4820593;29;20029;-77
2022/01/29 11:11:48;;;;;;;8.48;5.68;;;10.10;99.90;;;;;;4836001;29;20037;-79
2022/01/29 11:14:18;;;;;;;12.68;5.75;;;10.20;99.90;;;;;;4824064;29;20837;-78
2022/01/29 11:16:46;;;;;;;9.13;5.13;;;10.20;99.90;;;;;;4821405;29;20045;-77
2022/01/29 11:19:14;;;;;;;15.77;6.28;;;10.20;99.90;;;;;;4824319;29;20422;-77
2022/01/29 11:21:42;;;;;;;12.20;6.65;;;10.30;99.90;;;;;;4819880;29;20025;-77
2022/01/29 11:24:10;;;;;;;13.02;5.43;;;10.30;99.90;;;;;;4854980;29;20050;-77
2022/01/29 11:26:39;;;;;;;13.15;5.20;;;10.30;99.90;;;;;;4838410;29;21016;-76
2022/01/29 11:29:37;;;;;;;12.85;4.22;;;10.30;99.90;;;;;;4839837;29;20023;-77
2022/01/29 11:32:33;;;;;;;8.15;3.92;;;10.30;99.90;;;;;;4824450;29;20041;-77
2022/01/29 11:35:22;;;;;;;10.18;3.80;;;10.30;99.90;;;;;;4826483;29;20386;-77
2022/01/29 11:37:49;;;;;;;11.20;3.50;;;10.30;99.90;;;;;;4825718;29;20045;-77
2022/01/29 11:40:28;;;;;;;9.27;2.92;;;10.40;99.90;;;;;;4837635;29;20037;-77
2022/01/29 11:43:26;;;;;;;6.47;2.70;;;10.40;99.90;;;;;;4836134;29;20542;-78
2022/01/29 11:45:54;;;;;;;7.40;2.55;;;10.50;99.90;;;;;;4839975;29;20033;-77
2022/01/29 11:48:35;;;;;;;8.82;2.70;;;10.50;99.90;;;;;;4813205;29;20026;-77
2022/01/29 11:51:07;;;;;;;7.47;2.67;;;10.60;99.90;;;;;;4804603;29;20049;-78
2022/01/29 11:53:45;;;;;;;9.38;2.60;;;10.50;99.90;;;;;;4822974;29;20026;-79
2022/01/29 11:56:38;;;;;;;8.45;1.85;;;10.50;99.90;;;;;;4839738;29;20022;-77
2022/01/29 11:59:28;;;;;;;6.68;2.08;;;10.50;99.90;;;;;;4838564;29;20073;-78
2022/01/29 12:02:28;;;;;;;5.35;1.80;;;10.50;99.90;;;;;;4837568;29;20037;-78
2022/01/29 12:05:06;;;;;;;8.48;1.85;;;10.50;99.90;;;;;;4805722;29;20451;-79
2022/01/29 12:07:37;;;;;;;11.90;2.00;;;10.50;99.90;;;;;;4836821;29;20766;-76
2022/01/29 12:10:12;;;;;;;8.27;1.60;;;10.60;99.90;;;;;;4838295;29;20034;-78
2022/01/29 12:12:40;;;;;;;6.32;1.48;;;10.60;99.90;;;;;;4819845;29;20025;-77
2022/01/29 12:15:09;;;;;;;10.38;1.58;;;10.70;99.90;;;;;;4822268;29;20397;-77
2022/01/29 12:17:47;;;;;;;7.50;1.50;;;10.80;99.90;;;;;;4820049;29;20047;-77
2022/01/29 12:20:20;;;;;;;7.53;2.10;;;10.80;99.90;;;;;;4850561;29;20041;-77
2022/01/29 12:22:48;;;;;;;7.22;1.58;;;10.80;99.90;;;;;;4837021;29;20145;-76
2022/01/29 12:25:19;;;;;;;6.05;1.75;;;10.90;99.90;;;;;;4810487;29;20141;-76
2022/01/29 12:27:56;;;;;;;8.05;1.70;;;10.90;99.90;;;;;;4833287;29;20402;-75
2022/01/29 12:30:39;;;;;;;6.25;1.88;;;10.90;99.90;;;;;;4806680;29;20030;-76
2022/01/29 12:33:06;;;;;;;10.88;3.55;;;10.90;99.90;;;;;;4817347;29;20026;-76
2022/01/29 12:35:39;;;;;;;12.02;2.13;;;10.90;99.90;;;;;;4836672;29;20018;-75
2022/01/29 12:38:08;;;;;;;8.85;1.33;;;11.00;99.90;;;;;;4835175;29;20041;-75
2022/01/29 12:40:39;;;;;;;4.85;1.42;;;11.00;99.90;;;;;;4804888;29;20034;-76
2022/01/29 12:43:33;;;;;;;6.72;1.27;;;10.90;99.90;;;;;;4804992;29;20025;-78
2022/01/29 12:46:14;;;;;;;10.40;2.17;;;11.00;99.90;;;;;;4806910;29;20522;-78
2022/01/29 12:48:42;;;;;;;8.63;1.40;;;11.00;99.90;;;;;;4838793;29;20038;-77
2022/01/29 12:51:11;;;;;;;7.28;1.30;;;11.10;99.90;;;;;;4803055;29;20026;-77
2022/01/29 12:53:39;;;;;;;4.88;1.58;;;11.10;99.90;;;;;;4819001;29;20034;-77
2022/01/29 12:56:11;;;;;;;4.25;1.25;;;11.10;99.90;;;;;;4819754;29;20038;-77
2022/01/29 12:58:43;;;;;;;6.32;1.55;;;11.10;99.90;;;;;;4804404;29;20050;-78
2022/01/29 13:01:40;;;;;;;8.35;1.80;;;11.10;99.90;;;;;;4804836;29;20058;-80
2022/01/29 13:04:13;;;;;;;6.22;1.33;;;11.10;99.90;;;;;;4821889;29;20025;-79